sensor_id;sensor_type;location;lat;lon;timestamp;P1;durP1;ratioP1;P2;durP2;ratioP2
21810;SDS011;11067;48.788;9.208;2022-10-30T00:01:56;20.88;;;11.07;;
21810;SDS011;11067;48.788;9.208;2022-10-30T00:04:22;20.00;;;11.20;;
21810;SDS011;11067;48.788;9.208;2022-10-30T00:06:48;21.43;;;12.03;;
21810;SDS011;11067;48.788;9.208;2022-10-30T00:09:13;22.80;;;11.63;;
21810;SDS011;11067;48.788;9.208;2022-10-30T00:11:39;21.70;;;11.50;;
21810;SDS011;11067;48.788;9.208;2022-10-30T00:14:06;19.98;;;10.52;;
21810;SDS011;11067;48.788;9.208;2022-10-30T00:16:32;18.65;;;9.73;;
21810;SDS011;11067;48.788;9.208;2022-10-30T00:18:58;17.85;;;9.75;;
21810;SDS011;11067;48.788;9.208;2022-10-30T00:21:24;22.25;;;10.60;;
21810;SDS011;11067;48.788;9.208;2022-10-30T00:23:50;21.73;;;11.00;;
21810;SDS011;11067;48.788;9.208;2022-10-30T00:26:18;21.00;;;10.15;;
21810;SDS011;11067;48.788;9.208;2022-10-30T00:28:51;20.00;;;10.32;;
21810;SDS011;11067;48.788;9.208;2022-10-30T00:31:18;18.33;;;10.43;;
21810;SDS011;11067;48.788;9.208;2022-10-30T00:33:49;19.13;;;10.70;;
21810;SDS011;11067;48.788;9.208;2022-10-30T00:36:15;18.17;;;10.20;;
21810;SDS011;11067;48.788;9.208;2022-10-30T00:38:41;19.50;;;10.97;;
21810;SDS011;11067;48.788;9.208;2022-10-30T00:41:13;19.00;;;8.23;;
21810;SDS011;11067;48.788;9.208;2022-10-30T00:43:45;17.25;;;7.90;;
21810;SDS011;11067;48.788;9.208;2022-10-30T00:46:32;17.57;;;7.20;;
21810;SDS011;11067;48.788;9.208;2022-10-30T00:49:03;18.35;;;8.05;;
21810;SDS011;11067;48.788;9.208;2022-10-30T00:51:36;17.92;;;7.20;;
21810;SDS011;11067;48.788;9.208;2022-10-30T00:54:05;12.27;;;7.03;;
21810;SDS011;11067;48.788;9.208;2022-10-30T00:56:31;12.10;;;6.70;;
21810;SDS011;11067;48.788;9.208;2022-10-30T00:58:58;18.52;;;7.82;;
21810;SDS011;11067;48.788;9.208;2022-10-30T01:01:30;16.05;;;6.45;;
21810;SDS011;11067;48.788;9.208;2022-10-30T01:03:59;16.70;;;7.25;;
21810;SDS011;11067;48.788;9.208;2022-10-30T01:06:27;14.20;;;7.00;;
21810;SDS011;11067;48.788;9.208;2022-10-30T01:08:53;12.53;;;6.80;;
21810;SDS011;11067;48.788;9.208;2022-10-30T01:11:19;18.83;;;7.87;;
21810;SDS011;11067;48.788;9.208;2022-10-30T01:13:45;14.90;;;6.72;;
21810;SDS011;11067;48.788;9.208;2022-10-30T01:21:48;11.55;;;6.90;;
21810;SDS011;11067;48.788;9.208;2022-10-30T01:30:22;15.35;;;7.50;;
21810;SDS011;11067;48.788;9.208;2022-10-30T01:38:35;19.42;;;8.65;;
21810;SDS011;11067;48.788;9.208;2022-10-30T01:41:08;13.98;;;7.90;;
21810;SDS011;11067;48.788;9.208;2022-10-30T01:43:33;13.40;;;8.10;;
21810;SDS011;11067;48.788;9.208;2022-10-30T01:51:10;15.93;;;7.67;;
21810;SDS011;11067;48.788;9.208;2022-10-30T01:54:15;15.00;;;8.20;;
21810;SDS011;11067;48.788;9.208;2022-10-30T01:57:07;17.90;;;8.48;;
21810;SDS011;11067;48.788;9.208;2022-10-30T01:59:58;21.17;;;7.77;;
21810;SDS011;11067;48.788;9.208;2022-10-30T02:02:30;18.30;;;8.60;;
21810;SDS011;11067;48.788;9.208;2022-10-30T02:04:57;23.02;;;8.60;;
21810;SDS011;11067;48.788;9.208;2022-10-30T02:07:23;16.80;;;9.07;;
21810;SDS011;11067;48.788;9.208;2022-10-30T02:09:52;17.30;;;7.67;;
21810;SDS011;11067;48.788;9.208;2022-10-30T02:12:19;15.20;;;7.90;;
21810;SDS011;11067;48.788;9.208;2022-10-30T02:14:46;16.58;;;8.48;;
21810;SDS011;11067;48.788;9.208;2022-10-30T02:17:15;17.90;;;8.67;;
21810;SDS011;11067;48.788;9.208;2022-10-30T02:19:42;16.55;;;8.38;;
21810;SDS011;11067;48.788;9.208;2022-10-30T02:22:07;16.63;;;8.20;;
21810;SDS011;11067;48.788;9.208;2022-10-30T02:24:33;19.20;;;8.30;;
21810;SDS011;11067;48.788;9.208;2022-10-30T02:26:59;14.43;;;8.00;;
21810;SDS011;11067;48.788;9.208;2022-10-30T02:29:25;12.93;;;7.82;;
21810;SDS011;11067;48.788;9.208;2022-10-30T02:31:51;12.85;;;7.60;;
21810;SDS011;11067;48.788;9.208;2022-10-30T02:34:16;15.68;;;8.63;;
21810;SDS011;11067;48.788;9.208;2022-10-30T02:36:42;15.13;;;7.67;;
21810;SDS011;11067;48.788;9.208;2022-10-30T02:39:07;16.53;;;7.43;;
21810;SDS011;11067;48.788;9.208;2022-10-30T02:41:33;16.42;;;8.00;;
21810;SDS011;11067;48.788;9.208;2022-10-30T02:43:59;21.08;;;7.88;;
21810;SDS011;11067;48.788;9.208;2022-10-30T02:46:25;12.77;;;7.75;;
21810;SDS011;11067;48.788;9.208;2022-10-30T02:48:51;15.27;;;7.28;;
21810;SDS011;11067;48.788;9.208;2022-10-30T02:51:16;15.20;;;8.05;;
21810;SDS011;11067;48.788;9.208;2022-10-30T02:53:42;19.20;;;7.30;;
21810;SDS011;11067;48.788;9.208;2022-10-30T02:56:09;16.73;;;7.77;;
21810;SDS011;11067;48.788;9.208;2022-10-30T02:58:36;14.77;;;8.07;;
21810;SDS011;11067;48.788;9.208;2022-10-30T03:01:09;13.83;;;7.63;;
21810;SDS011;11067;48.788;9.208;2022-10-30T03:03:39;16.93;;;7.80;;
21810;SDS011;11067;48.788;9.208;2022-10-30T03:06:06;15.13;;;7.80;;
21810;SDS011;11067;48.788;9.208;2022-10-30T03:08:34;17.60;;;8.30;;
21810;SDS011;11067;48.788;9.208;2022-10-30T03:11:05;17.73;;;8.30;;
21810;SDS011;11067;48.788;9.208;2022-10-30T03:13:35;15.23;;;7.97;;
21810;SDS011;11067;48.788;9.208;2022-10-30T03:16:05;19.13;;;8.03;;
21810;SDS011;11067;48.788;9.208;2022-10-30T03:18:34;15.65;;;8.10;;
21810;SDS011;11067;48.788;9.208;2022-10-30T03:21:00;16.67;;;7.82;;
21810;SDS011;11067;48.788;9.208;2022-10-30T03:23:28;25.23;;;8.05;;
21810;SDS011;11067;48.788;9.208;2022-10-30T03:25:54;16.15;;;7.65;;
21810;SDS011;11067;48.788;9.208;2022-10-30T03:28:21;19.35;;;8.27;;
21810;SDS011;11067;48.788;9.208;2022-10-30T03:30:48;13.52;;;7.28;;
21810;SDS011;11067;48.788;9.208;2022-10-30T03:33:14;15.20;;;7.05;;
21810;SDS011;11067;48.788;9.208;2022-10-30T03:35:41;18.10;;;8.77;;
21810;SDS011;11067;48.788;9.208;2022-10-30T03:38:13;14.50;;;7.57;;
21810;SDS011;11067;48.788;9.208;2022-10-30T03:40:38;17.27;;;8.07;;
21810;SDS011;11067;48.788;9.208;2022-10-30T03:43:04;16.70;;;7.53;;
21810;SDS011;11067;48.788;9.208;2022-10-30T03:45:31;16.55;;;7.50;;
21810;SDS011;11067;48.788;9.208;2022-10-30T03:47:59;15.23;;;7.68;;
21810;SDS011;11067;48.788;9.208;2022-10-30T03:50:25;14.43;;;7.40;;
21810;SDS011;11067;48.788;9.208;2022-10-30T03:52:52;15.13;;;6.70;;
21810;SDS011;11067;48.788;9.208;2022-10-30T03:55:21;15.50;;;6.78;;
21810;SDS011;11067;48.788;9.208;2022-10-30T03:57:47;15.25;;;7.10;;
21810;SDS011;11067;48.788;9.208;2022-10-30T04:00:13;12.18;;;7.38;;
21810;SDS011;11067;48.788;9.208;2022-10-30T04:02:43;19.15;;;7.55;;
21810;SDS011;11067;48.788;9.208;2022-10-30T04:05:12;15.20;;;7.28;;
21810;SDS011;11067;48.788;9.208;2022-10-30T04:07:43;12.57;;;7.47;;
21810;SDS011;11067;48.788;9.208;2022-10-30T04:10:08;19.33;;;7.45;;
21810;SDS011;11067;48.788;9.208;2022-10-30T04:12:35;11.70;;;6.85;;
21810;SDS011;11067;48.788;9.208;2022-10-30T04:15:00;15.30;;;7.43;;
21810;SDS011;11067;48.788;9.208;2022-10-30T04:17:26;14.77;;;7.05;;
21810;SDS011;11067;48.788;9.208;2022-10-30T04:19:51;15.73;;;6.72;;
21810;SDS011;11067;48.788;9.208;2022-10-30T04:22:17;16.27;;;7.47;;
21810;SDS011;11067;48.788;9.208;2022-10-30T04:24:42;17.30;;;7.22;;
21810;SDS011;11067;48.788;9.208;2022-10-30T04:27:09;13.13;;;7.13;;
21810;SDS011;11067;48.788;9.208;2022-10-30T04:29:37;14.20;;;7.05;;
21810;SDS011;11067;48.788;9.208;2022-10-30T04:32:02;15.73;;;7.85;;
21810;SDS011;11067;48.788;9.208;2022-10-30T04:34:28;17.58;;;7.57;;
21810;SDS011;11067;48.788;9.208;2022-10-30T04:36:54;16.80;;;7.73;;
21810;SDS011;11067;48.788;9.208;2022-10-30T04:39:19;15.73;;;7.33;;
21810;SDS011;11067;48.788;9.208;2022-10-30T04:41:45;14.07;;;6.95;;
21810;SDS011;11067;48.788;9.208;2022-10-30T04:44:10;14.50;;;7.53;;
21810;SDS011;11067;48.788;9.208;2022-10-30T04:46:36;14.93;;;7.00;;
21810;SDS011;11067;48.788;9.208;2022-10-30T04:49:01;14.07;;;7.65;;
21810;SDS011;11067;48.788;9.208;2022-10-30T04:51:27;12.77;;;7.10;;
21810;SDS011;11067;48.788;9.208;2022-10-30T04:53:52;14.67;;;7.10;;
21810;SDS011;11067;48.788;9.208;2022-10-30T04:56:19;12.50;;;7.32;;
21810;SDS011;11067;48.788;9.208;2022-10-30T04:58:44;15.90;;;7.90;;
21810;SDS011;11067;48.788;9.208;2022-10-30T05:01:10;13.45;;;7.43;;
21810;SDS011;11067;48.788;9.208;2022-10-30T05:03:35;14.90;;;7.23;;
21810;SDS011;11067;48.788;9.208;2022-10-30T05:06:05;15.70;;;7.20;;
21810;SDS011;11067;48.788;9.208;2022-10-30T05:08:37;11.98;;;7.13;;
21810;SDS011;11067;48.788;9.208;2022-10-30T05:11:03;15.88;;;6.93;;
21810;SDS011;11067;48.788;9.208;2022-10-30T05:13:29;16.07;;;7.80;;
21810;SDS011;11067;48.788;9.208;2022-10-30T05:15:54;13.50;;;7.13;;
21810;SDS011;11067;48.788;9.208;2022-10-30T05:18:20;15.88;;;6.43;;
21810;SDS011;11067;48.788;9.208;2022-10-30T05:20:46;13.63;;;6.63;;
21810;SDS011;11067;48.788;9.208;2022-10-30T05:23:11;14.53;;;6.53;;
21810;SDS011;11067;48.788;9.208;2022-10-30T05:25:37;12.37;;;6.60;;
21810;SDS011;11067;48.788;9.208;2022-10-30T05:28:03;13.98;;;6.70;;
21810;SDS011;11067;48.788;9.208;2022-10-30T05:30:30;14.40;;;6.70;;
21810;SDS011;11067;48.788;9.208;2022-10-30T05:32:58;20.73;;;6.93;;
21810;SDS011;11067;48.788;9.208;2022-10-30T05:35:28;14.43;;;6.03;;
21810;SDS011;11067;48.788;9.208;2022-10-30T05:37:56;13.40;;;6.15;;
21810;SDS011;11067;48.788;9.208;2022-10-30T05:40:22;13.43;;;5.72;;
21810;SDS011;11067;48.788;9.208;2022-10-30T05:42:48;11.75;;;5.90;;
21810;SDS011;11067;48.788;9.208;2022-10-30T05:45:14;11.77;;;5.57;;
21810;SDS011;11067;48.788;9.208;2022-10-30T05:47:40;13.05;;;5.15;;
21810;SDS011;11067;48.788;9.208;2022-10-30T05:50:06;13.43;;;5.73;;
21810;SDS011;11067;48.788;9.208;2022-10-30T05:52:33;8.82;;;5.20;;
21810;SDS011;11067;48.788;9.208;2022-10-30T05:54:58;13.50;;;6.10;;
21810;SDS011;11067;48.788;9.208;2022-10-30T05:57:26;14.23;;;6.00;;
21810;SDS011;11067;48.788;9.208;2022-10-30T05:59:53;14.10;;;5.32;;
21810;SDS011;11067;48.788;9.208;2022-10-30T06:02:18;16.48;;;6.45;;
21810;SDS011;11067;48.788;9.208;2022-10-30T06:04:44;12.10;;;5.93;;
21810;SDS011;11067;48.788;9.208;2022-10-30T06:07:10;13.77;;;5.57;;
21810;SDS011;11067;48.788;9.208;2022-10-30T06:09:35;16.67;;;5.75;;
21810;SDS011;11067;48.788;9.208;2022-10-30T06:12:01;14.20;;;5.50;;
21810;SDS011;11067;48.788;9.208;2022-10-30T06:14:26;12.90;;;5.33;;
21810;SDS011;11067;48.788;9.208;2022-10-30T06:16:52;15.20;;;6.40;;
21810;SDS011;11067;48.788;9.208;2022-10-30T06:19:18;11.90;;;6.00;;
21810;SDS011;11067;48.788;9.208;2022-10-30T06:21:43;12.53;;;5.63;;
21810;SDS011;11067;48.788;9.208;2022-10-30T06:24:09;11.83;;;5.50;;
21810;SDS011;11067;48.788;9.208;2022-10-30T06:26:34;14.85;;;6.00;;
21810;SDS011;11067;48.788;9.208;2022-10-30T06:29:00;13.87;;;5.80;;
21810;SDS011;11067;48.788;9.208;2022-10-30T06:31:25;15.33;;;6.77;;
21810;SDS011;11067;48.788;9.208;2022-10-30T06:33:51;13.98;;;6.57;;
21810;SDS011;11067;48.788;9.208;2022-10-30T06:36:16;14.73;;;6.15;;
21810;SDS011;11067;48.788;9.208;2022-10-30T06:38:42;14.13;;;5.77;;
21810;SDS011;11067;48.788;9.208;2022-10-30T06:41:08;8.63;;;5.50;;
21810;SDS011;11067;48.788;9.208;2022-10-30T06:43:33;12.70;;;6.00;;
21810;SDS011;11067;48.788;9.208;2022-10-30T06:45:59;12.77;;;5.95;;
21810;SDS011;11067;48.788;9.208;2022-10-30T06:48:25;14.18;;;5.35;;
21810;SDS011;11067;48.788;9.208;2022-10-30T06:50:54;9.65;;;5.53;;
21810;SDS011;11067;48.788;9.208;2022-10-30T06:53:20;9.00;;;4.80;;
21810;SDS011;11067;48.788;9.208;2022-10-30T06:55:59;17.60;;;5.57;;
21810;SDS011;11067;48.788;9.208;2022-10-30T06:58:28;13.00;;;5.35;;
21810;SDS011;11067;48.788;9.208;2022-10-30T07:00:54;14.93;;;5.80;;
21810;SDS011;11067;48.788;9.208;2022-10-30T07:03:20;11.82;;;5.10;;
21810;SDS011;11067;48.788;9.208;2022-10-30T07:05:46;14.80;;;6.10;;
21810;SDS011;11067;48.788;9.208;2022-10-30T07:08:11;12.77;;;6.20;;
21810;SDS011;11067;48.788;9.208;2022-10-30T07:10:37;9.55;;;5.80;;
21810;SDS011;11067;48.788;9.208;2022-10-30T07:13:03;11.82;;;5.53;;
21810;SDS011;11067;48.788;9.208;2022-10-30T07:15:28;11.80;;;5.10;;
21810;SDS011;11067;48.788;9.208;2022-10-30T07:17:58;11.80;;;4.90;;
21810;SDS011;11067;48.788;9.208;2022-10-30T07:20:26;13.15;;;6.35;;
21810;SDS011;11067;48.788;9.208;2022-10-30T07:22:52;10.37;;;5.20;;
21810;SDS011;11067;48.788;9.208;2022-10-30T07:25:18;18.13;;;5.27;;
21810;SDS011;11067;48.788;9.208;2022-10-30T07:27:44;11.02;;;5.35;;
21810;SDS011;11067;48.788;9.208;2022-10-30T07:30:15;11.23;;;5.70;;
21810;SDS011;11067;48.788;9.208;2022-10-30T07:32:42;10.45;;;5.72;;
21810;SDS011;11067;48.788;9.208;2022-10-30T07:35:09;17.15;;;5.95;;
21810;SDS011;11067;48.788;9.208;2022-10-30T07:37:37;16.38;;;6.10;;
21810;SDS011;11067;48.788;9.208;2022-10-30T07:40:03;10.43;;;5.55;;
21810;SDS011;11067;48.788;9.208;2022-10-30T07:42:28;16.58;;;5.85;;
21810;SDS011;11067;48.788;9.208;2022-10-30T07:44:54;11.93;;;5.30;;
21810;SDS011;11067;48.788;9.208;2022-10-30T07:47:19;11.53;;;5.17;;
21810;SDS011;11067;48.788;9.208;2022-10-30T07:49:45;11.27;;;5.03;;
21810;SDS011;11067;48.788;9.208;2022-10-30T07:52:11;9.93;;;5.43;;
21810;SDS011;11067;48.788;9.208;2022-10-30T07:54:36;11.33;;;5.17;;
21810;SDS011;11067;48.788;9.208;2022-10-30T07:57:02;17.73;;;5.72;;
21810;SDS011;11067;48.788;9.208;2022-10-30T07:59:27;14.27;;;5.30;;
21810;SDS011;11067;48.788;9.208;2022-10-30T08:01:53;10.90;;;4.85;;
21810;SDS011;11067;48.788;9.208;2022-10-30T08:04:18;12.57;;;4.90;;
21810;SDS011;11067;48.788;9.208;2022-10-30T08:06:44;11.83;;;4.53;;
21810;SDS011;11067;48.788;9.208;2022-10-30T08:09:09;12.85;;;5.43;;
21810;SDS011;11067;48.788;9.208;2022-10-30T08:11:35;12.37;;;4.90;;
21810;SDS011;11067;48.788;9.208;2022-10-30T08:14:01;14.13;;;5.10;;
21810;SDS011;11067;48.788;9.208;2022-10-30T08:16:26;11.65;;;5.32;;
21810;SDS011;11067;48.788;9.208;2022-10-30T08:18:52;14.20;;;5.28;;
21810;SDS011;11067;48.788;9.208;2022-10-30T08:21:18;10.73;;;5.10;;
21810;SDS011;11067;48.788;9.208;2022-10-30T08:23:44;9.32;;;5.13;;
21810;SDS011;11067;48.788;9.208;2022-10-30T08:26:10;9.20;;;4.88;;
21810;SDS011;11067;48.788;9.208;2022-10-30T08:28:35;12.67;;;5.10;;
21810;SDS011;11067;48.788;9.208;2022-10-30T08:31:01;13.98;;;4.90;;
21810;SDS011;11067;48.788;9.208;2022-10-30T08:33:27;13.23;;;4.88;;
21810;SDS011;11067;48.788;9.208;2022-10-30T08:35:54;7.90;;;4.70;;
21810;SDS011;11067;48.788;9.208;2022-10-30T08:38:21;10.73;;;5.00;;
21810;SDS011;11067;48.788;9.208;2022-10-30T08:40:47;14.15;;;5.40;;
21810;SDS011;11067;48.788;9.208;2022-10-30T08:43:13;10.50;;;5.00;;
21810;SDS011;11067;48.788;9.208;2022-10-30T08:45:39;10.85;;;5.35;;
21810;SDS011;11067;48.788;9.208;2022-10-30T08:48:05;10.90;;;4.70;;
21810;SDS011;11067;48.788;9.208;2022-10-30T08:50:33;13.43;;;4.68;;
21810;SDS011;11067;48.788;9.208;2022-10-30T08:53:01;10.88;;;4.47;;
21810;SDS011;11067;48.788;9.208;2022-10-30T08:55:29;11.48;;;4.90;;
21810;SDS011;11067;48.788;9.208;2022-10-30T08:57:55;11.32;;;5.15;;
21810;SDS011;11067;48.788;9.208;2022-10-30T09:00:21;11.20;;;4.70;;
21810;SDS011;11067;48.788;9.208;2022-10-30T09:02:46;11.90;;;5.00;;
21810;SDS011;11067;48.788;9.208;2022-10-30T09:05:12;8.27;;;5.20;;
21810;SDS011;11067;48.788;9.208;2022-10-30T09:07:37;14.60;;;5.68;;
21810;SDS011;11067;48.788;9.208;2022-10-30T09:10:03;13.13;;;5.53;;
21810;SDS011;11067;48.788;9.208;2022-10-30T09:12:29;9.75;;;5.30;;
21810;SDS011;11067;48.788;9.208;2022-10-30T09:14:55;13.27;;;4.90;;
21810;SDS011;11067;48.788;9.208;2022-10-30T09:17:20;18.38;;;5.68;;
21810;SDS011;11067;48.788;9.208;2022-10-30T09:19:46;12.32;;;5.18;;
21810;SDS011;11067;48.788;9.208;2022-10-30T09:22:12;13.53;;;5.13;;
21810;SDS011;11067;48.788;9.208;2022-10-30T09:24:37;11.20;;;5.17;;
21810;SDS011;11067;48.788;9.208;2022-10-30T09:27:04;13.10;;;5.85;;
21810;SDS011;11067;48.788;9.208;2022-10-30T09:29:30;17.50;;;5.73;;
21810;SDS011;11067;48.788;9.208;2022-10-30T09:31:56;12.35;;;5.28;;
21810;SDS011;11067;48.788;9.208;2022-10-30T09:34:25;12.30;;;5.50;;
21810;SDS011;11067;48.788;9.208;2022-10-30T09:36:54;12.15;;;5.00;;
21810;SDS011;11067;48.788;9.208;2022-10-30T09:39:20;11.85;;;5.18;;
21810;SDS011;11067;48.788;9.208;2022-10-30T09:47:51;10.88;;;4.80;;
21810;SDS011;11067;48.788;9.208;2022-10-30T09:50:23;18.43;;;5.40;;
21810;SDS011;11067;48.788;9.208;2022-10-30T09:58:17;10.95;;;5.30;;
21810;SDS011;11067;48.788;9.208;2022-10-30T10:00:48;16.13;;;5.43;;
21810;SDS011;11067;48.788;9.208;2022-10-30T10:06:11;10.35;;;5.30;;
21810;SDS011;11067;48.788;9.208;2022-10-30T10:09:16;13.43;;;4.80;;
21810;SDS011;11067;48.788;9.208;2022-10-30T10:11:40;15.15;;;5.10;;
21810;SDS011;11067;48.788;9.208;2022-10-30T10:14:14;12.40;;;5.20;;
21810;SDS011;11067;48.788;9.208;2022-10-30T10:16:45;9.00;;;4.50;;
21810;SDS011;11067;48.788;9.208;2022-10-30T10:21:46;10.07;;;4.37;;
21810;SDS011;11067;48.788;9.208;2022-10-30T10:24:20;10.13;;;4.38;;
21810;SDS011;11067;48.788;9.208;2022-10-30T10:29:27;9.63;;;4.55;;
21810;SDS011;11067;48.788;9.208;2022-10-30T10:32:03;17.80;;;5.20;;
21810;SDS011;11067;48.788;9.208;2022-10-30T10:42:28;10.95;;;4.38;;
21810;SDS011;11067;48.788;9.208;2022-10-30T10:47:51;13.05;;;4.57;;
21810;SDS011;11067;48.788;9.208;2022-10-30T10:50:47;11.63;;;4.30;;
21810;SDS011;11067;48.788;9.208;2022-10-30T10:53:20;11.90;;;4.30;;
21810;SDS011;11067;48.788;9.208;2022-10-30T10:55:51;14.88;;;4.70;;
21810;SDS011;11067;48.788;9.208;2022-10-30T10:58:24;14.98;;;4.40;;
21810;SDS011;11067;48.788;9.208;2022-10-30T11:01:02;12.38;;;4.28;;
21810;SDS011;11067;48.788;9.208;2022-10-30T11:04:17;11.35;;;4.32;;
21810;SDS011;11067;48.788;9.208;2022-10-30T11:08:51;13.93;;;5.00;;
21810;SDS011;11067;48.788;9.208;2022-10-30T11:11:25;10.38;;;4.25;;
21810;SDS011;11067;48.788;9.208;2022-10-30T11:13:51;10.43;;;4.22;;
21810;SDS011;11067;48.788;9.208;2022-10-30T11:18:50;10.80;;;4.60;;
21810;SDS011;11067;48.788;9.208;2022-10-30T11:21:20;8.20;;;4.43;;
21810;SDS011;11067;48.788;9.208;2022-10-30T11:23:48;11.38;;;4.65;;
21810;SDS011;11067;48.788;9.208;2022-10-30T11:28:49;10.40;;;4.22;;
21810;SDS011;11067;48.788;9.208;2022-10-30T11:36:42;9.40;;;4.23;;
21810;SDS011;11067;48.788;9.208;2022-10-30T11:39:09;9.15;;;4.60;;
21810;SDS011;11067;48.788;9.208;2022-10-30T11:41:42;9.60;;;4.03;;
21810;SDS011;11067;48.788;9.208;2022-10-30T11:44:14;10.07;;;4.20;;
21810;SDS011;11067;48.788;9.208;2022-10-30T11:46:40;7.60;;;4.30;;
21810;SDS011;11067;48.788;9.208;2022-10-30T11:49:05;9.52;;;4.38;;
21810;SDS011;11067;48.788;9.208;2022-10-30T11:51:47;7.70;;;4.25;;
21810;SDS011;11067;48.788;9.208;2022-10-30T11:54:15;8.85;;;4.07;;
21810;SDS011;11067;48.788;9.208;2022-10-30T11:56:46;13.27;;;4.40;;
21810;SDS011;11067;48.788;9.208;2022-10-30T11:59:16;11.02;;;4.30;;
21810;SDS011;11067;48.788;9.208;2022-10-30T12:01:58;8.23;;;4.00;;
21810;SDS011;11067;48.788;9.208;2022-10-30T12:04:26;9.32;;;4.13;;
21810;SDS011;11067;48.788;9.208;2022-10-30T12:07:38;8.65;;;4.32;;
21810;SDS011;11067;48.788;9.208;2022-10-30T12:09:42;9.25;;;4.25;;
21810;SDS011;11067;48.788;9.208;2022-10-30T12:12:54;12.52;;;4.25;;
21810;SDS011;11067;48.788;9.208;2022-10-30T12:17:51;11.53;;;4.70;;
21810;SDS011;11067;48.788;9.208;2022-10-30T12:20:18;11.93;;;4.45;;
21810;SDS011;11067;48.788;9.208;2022-10-30T12:22:45;8.90;;;4.20;;
21810;SDS011;11067;48.788;9.208;2022-10-30T12:25:44;8.45;;;4.30;;
21810;SDS011;11067;48.788;9.208;2022-10-30T12:28:03;10.60;;;4.30;;
21810;SDS011;11067;48.788;9.208;2022-10-30T12:30:42;8.90;;;4.40;;
21810;SDS011;11067;48.788;9.208;2022-10-30T12:33:20;8.88;;;4.30;;
21810;SDS011;11067;48.788;9.208;2022-10-30T12:35:56;15.83;;;5.17;;
21810;SDS011;11067;48.788;9.208;2022-10-30T12:43:47;9.77;;;4.30;;
21810;SDS011;11067;48.788;9.208;2022-10-30T12:48:51;11.15;;;4.55;;
21810;SDS011;11067;48.788;9.208;2022-10-30T12:54:30;11.85;;;4.88;;
21810;SDS011;11067;48.788;9.208;2022-10-30T12:57:09;12.07;;;4.57;;
21810;SDS011;11067;48.788;9.208;2022-10-30T13:04:35;15.77;;;4.67;;
21810;SDS011;11067;48.788;9.208;2022-10-30T13:10:01;12.20;;;4.63;;
21810;SDS011;11067;48.788;9.208;2022-10-30T13:12:45;10.80;;;4.22;;
21810;SDS011;11067;48.788;9.208;2022-10-30T13:18:17;7.20;;;4.45;;
21810;SDS011;11067;48.788;9.208;2022-10-30T13:20:55;10.63;;;3.70;;
21810;SDS011;11067;48.788;9.208;2022-10-30T13:23:37;9.90;;;4.03;;
21810;SDS011;11067;48.788;9.208;2022-10-30T13:28:51;10.57;;;4.38;;
21810;SDS011;11067;48.788;9.208;2022-10-30T13:31:45;9.07;;;4.73;;
21810;SDS011;11067;48.788;9.208;2022-10-30T13:34:20;10.43;;;4.72;;
21810;SDS011;11067;48.788;9.208;2022-10-30T13:37:08;9.35;;;5.03;;
21810;SDS011;11067;48.788;9.208;2022-10-30T13:39:53;9.07;;;4.35;;
21810;SDS011;11067;48.788;9.208;2022-10-30T13:48:14;10.75;;;4.47;;
21810;SDS011;11067;48.788;9.208;2022-10-30T13:54:21;8.55;;;3.80;;
21810;SDS011;11067;48.788;9.208;2022-10-30T13:56:54;8.50;;;4.13;;
21810;SDS011;11067;48.788;9.208;2022-10-30T14:02:31;8.75;;;4.47;;
21810;SDS011;11067;48.788;9.208;2022-10-30T14:07:48;9.93;;;4.38;;
21810;SDS011;11067;48.788;9.208;2022-10-30T14:15:44;10.43;;;4.20;;
21810;SDS011;11067;48.788;9.208;2022-10-30T14:20:39;10.48;;;4.03;;
21810;SDS011;11067;48.788;9.208;2022-10-30T14:23:13;9.43;;;4.00;;
21810;SDS011;11067;48.788;9.208;2022-10-30T14:28:29;8.27;;;4.00;;
21810;SDS011;11067;48.788;9.208;2022-10-30T14:31:18;8.45;;;4.10;;
21810;SDS011;11067;48.788;9.208;2022-10-30T14:33:56;12.93;;;4.90;;
21810;SDS011;11067;48.788;9.208;2022-10-30T14:47:53;12.18;;;4.55;;
21810;SDS011;11067;48.788;9.208;2022-10-30T14:55:28;15.48;;;4.88;;
21810;SDS011;11067;48.788;9.208;2022-10-30T15:03:14;15.32;;;6.47;;
21810;SDS011;11067;48.788;9.208;2022-10-30T15:06:05;12.73;;;5.57;;
21810;SDS011;11067;48.788;9.208;2022-10-30T15:13:45;19.43;;;9.00;;
21810;SDS011;11067;48.788;9.208;2022-10-30T15:16:15;16.80;;;7.25;;
21810;SDS011;11067;48.788;9.208;2022-10-30T15:18:44;17.23;;;7.95;;
21810;SDS011;11067;48.788;9.208;2022-10-30T15:21:12;15.68;;;7.63;;
21810;SDS011;11067;48.788;9.208;2022-10-30T15:23:47;13.53;;;7.13;;
21810;SDS011;11067;48.788;9.208;2022-10-30T15:26:20;16.43;;;7.60;;
21810;SDS011;11067;48.788;9.208;2022-10-30T15:28:50;18.80;;;7.93;;
21810;SDS011;11067;48.788;9.208;2022-10-30T15:31:21;18.98;;;8.00;;
21810;SDS011;11067;48.788;9.208;2022-10-30T15:33:49;18.02;;;8.00;;
21810;SDS011;11067;48.788;9.208;2022-10-30T15:36:18;21.92;;;8.73;;
21810;SDS011;11067;48.788;9.208;2022-10-30T15:39:04;21.25;;;9.07;;
21810;SDS011;11067;48.788;9.208;2022-10-30T15:41:36;32.25;;;16.98;;
21810;SDS011;11067;48.788;9.208;2022-10-30T15:44:21;18.33;;;9.13;;
21810;SDS011;11067;48.788;9.208;2022-10-30T15:46:48;18.10;;;9.10;;
21810;SDS011;11067;48.788;9.208;2022-10-30T15:49:35;16.27;;;8.68;;
21810;SDS011;11067;48.788;9.208;2022-10-30T15:52:17;14.55;;;7.15;;
21810;SDS011;11067;48.788;9.208;2022-10-30T15:54:43;15.38;;;7.60;;
21810;SDS011;11067;48.788;9.208;2022-10-30T15:57:15;14.77;;;7.53;;
21810;SDS011;11067;48.788;9.208;2022-10-30T15:59:48;14.52;;;7.57;;
21810;SDS011;11067;48.788;9.208;2022-10-30T16:02:20;15.02;;;7.28;;
21810;SDS011;11067;48.788;9.208;2022-10-30T16:04:47;17.67;;;8.40;;
21810;SDS011;11067;48.788;9.208;2022-10-30T16:07:16;17.48;;;8.23;;
21810;SDS011;11067;48.788;9.208;2022-10-30T16:10:08;18.45;;;8.50;;
21810;SDS011;11067;48.788;9.208;2022-10-30T16:12:38;17.48;;;8.25;;
21810;SDS011;11067;48.788;9.208;2022-10-30T16:15:07;13.07;;;7.43;;
21810;SDS011;11067;48.788;9.208;2022-10-30T16:20:47;18.50;;;9.80;;
21810;SDS011;11067;48.788;9.208;2022-10-30T16:23:18;20.85;;;10.18;;
21810;SDS011;11067;48.788;9.208;2022-10-30T16:25:44;22.13;;;9.93;;
21810;SDS011;11067;48.788;9.208;2022-10-30T16:30:48;19.75;;;10.27;;
21810;SDS011;11067;48.788;9.208;2022-10-30T16:33:14;16.23;;;9.18;;
21810;SDS011;11067;48.788;9.208;2022-10-30T16:35:40;16.33;;;8.95;;
21810;SDS011;11067;48.788;9.208;2022-10-30T16:38:07;17.83;;;9.25;;
21810;SDS011;11067;48.788;9.208;2022-10-30T16:40:36;23.38;;;9.90;;
21810;SDS011;11067;48.788;9.208;2022-10-30T16:43:02;21.33;;;9.37;;
21810;SDS011;11067;48.788;9.208;2022-10-30T16:48:01;19.52;;;9.15;;
21810;SDS011;11067;48.788;9.208;2022-10-30T16:50:33;17.45;;;9.48;;
21810;SDS011;11067;48.788;9.208;2022-10-30T16:53:10;20.83;;;9.40;;
21810;SDS011;11067;48.788;9.208;2022-10-30T16:55:42;15.52;;;8.90;;
21810;SDS011;11067;48.788;9.208;2022-10-30T16:58:08;19.20;;;9.68;;
21810;SDS011;11067;48.788;9.208;2022-10-30T17:00:37;22.20;;;10.03;;
21810;SDS011;11067;48.788;9.208;2022-10-30T17:03:09;18.65;;;9.43;;
21810;SDS011;11067;48.788;9.208;2022-10-30T17:05:35;16.35;;;9.75;;
21810;SDS011;11067;48.788;9.208;2022-10-30T17:08:03;17.23;;;10.18;;
21810;SDS011;11067;48.788;9.208;2022-10-30T17:10:41;20.60;;;10.37;;
21810;SDS011;11067;48.788;9.208;2022-10-30T17:16:26;20.25;;;9.85;;
21810;SDS011;11067;48.788;9.208;2022-10-30T17:18:59;26.17;;;9.80;;
21810;SDS011;11067;48.788;9.208;2022-10-30T17:21:45;15.50;;;9.70;;
21810;SDS011;11067;48.788;9.208;2022-10-30T17:24:17;22.33;;;10.02;;
21810;SDS011;11067;48.788;9.208;2022-10-30T17:26:52;15.87;;;9.77;;